Time;durP1;ratioP1;P1;durP2;ratioP2;P2;SDS_P1;SDS_P2;PMS_P1;PMS_P2;Temp;Humidity;BMP_temperature;BMP_pressure;BME280_temperature;BME280_humidity;BME280_pressure;Samples;Min_cycle;Max_cycle;Signal;HPM_P1;HPM_P2
2021/05/23 00:00:26;;;;;;;5.20;1.15;;;;;;;17.82;45.86;100175.09;1701150;82;21385;-60
2021/05/23 00:02:51;;;;;;;2.50;0.90;;;;;;;17.80;46.12;100182.40;1730053;82;21139;-60
2021/05/23 00:05:20;;;;;;;3.10;1.05;;;;;;;17.75;46.40;100184.75;1727442;80;21045;-60
2021/05/23 00:07:56;;;;;;;4.03;1.10;;;;;;;17.72;46.75;100183.77;1705632;82;21104;-61
2021/05/23 00:10:24;;;;;;;3.45;1.40;;;;;;;17.68;47.27;100177.15;1732128;82;21044;-60
2021/05/23 00:12:53;;;;;;;4.53;1.07;;;;;;;17.66;47.40;100176.50;1733679;82;21150;-60
2021/05/23 00:15:33;;;;;;;2.98;1.00;;;;;;;17.62;47.66;100176.84;1729516;82;21084;-60
2021/05/23 00:17:59;;;;;;;3.62;1.22;;;;;;;17.59;48.05;100177.19;1728089;80;21100;-60
2021/05/23 00:20:26;;;;;;;3.40;1.00;;;;;;;17.53;48.48;100183.19;1653509;85;21091;-61
2021/05/23 00:22:53;;;;;;;5.40;1.60;;;;;;;17.49;48.92;100184.55;1704696;82;22549;-60
2021/05/23 00:25:21;;;;;;;3.37;1.10;;;;;;;17.43;49.11;100200.72;1674957;83;21084;-61
2021/05/23 00:27:48;;;;;;;3.10;1.07;;;;;;;17.39;49.65;100196.72;1707830;80;21099;-60
2021/05/23 00:30:16;;;;;;;4.40;1.20;;;;;;;17.38;50.07;100191.57;1731144;80;21140;-61
2021/05/23 00:32:43;;;;;;;3.20;0.93;;;;;;;17.35;50.17;100181.27;1731620;82;21108;-61
2021/05/23 00:35:10;;;;;;;3.27;1.20;;;;;;;17.34;50.61;100172.98;1726712;82;21734;-62
2021/05/23 00:37:37;;;;;;;3.77;1.22;;;;;;;17.34;51.59;100184.95;1729559;82;21073;-61
2021/05/23 00:40:06;;;;;;;5.00;1.42;;;;;;;17.30;52.39;100191.59;1726472;82;22323;-62
2021/05/23 00:42:32;;;;;;;4.45;1.32;;;;;;;17.20;52.77;100187.32;1731940;82;21171;-62
2021/05/23 00:44:59;;;;;;;5.17;1.67;;;;;;;17.11;53.53;100189.66;1727739;82;21041;-62
2021/05/23 00:47:25;;;;;;;3.37;1.07;;;;;;;17.04;54.11;100186.84;1732500;82;21412;-62
2021/05/23 00:49:53;;;;;;;3.67;1.20;;;;;;;16.99;54.30;100192.35;1700686;82;21194;-62
2021/05/23 00:52:20;;;;;;;3.08;1.20;;;;;;;16.92;54.66;100192.70;1707789;82;21088;-62
2021/05/23 00:54:46;;;;;;;5.97;1.80;;;;;;;16.84;55.08;100182.87;1689943;82;21144;-62
2021/05/23 00:57:14;;;;;;;3.52;1.60;;;;;;;16.78;55.77;100186.20;1732435;82;21092;-62
2021/05/23 00:59:41;;;;;;;4.85;1.70;;;;;;;16.72;56.45;100183.72;1726766;80;21130;-62
2021/05/23 01:02:14;;;;;;;3.65;1.35;;;;;;;16.73;57.48;100188.05;1725202;80;21078;-62
2021/05/23 01:04:40;;;;;;;4.05;1.30;;;;;;;16.79;58.06;100178.57;1716776;81;21093;-62
2021/05/23 01:07:07;;;;;;;3.77;1.60;;;;;;;16.90;57.53;100181.73;1715219;81;21097;-62
2021/05/23 01:09:35;;;;;;;3.55;1.55;;;;;;;16.96;57.64;100186.86;1713990;81;21049;-62
2021/05/23 01:12:27;;;;;;;4.47;1.82;;;;;;;16.98;57.92;100196.84;1718168;82;21201;-63
2021/05/23 01:14:57;;;;;;;3.87;1.37;;;;;;;16.96;57.93;100198.82;1717552;82;21214;-61
2021/05/23 01:17:32;;;;;;;4.75;1.57;;;;;;;16.92;58.37;100198.84;1715788;82;21758;-61
2021/05/23 01:20:13;;;;;;;4.70;2.20;;;;;;;16.87;58.63;100198.02;1720697;82;21200;-61
2021/05/23 01:23:03;;;;;;;3.47;1.62;;;;;;;16.84;58.76;100206.79;1721170;82;21121;-61
2021/05/23 01:25:30;;;;;;;4.80;1.72;;;;;;;16.80;59.22;100218.26;1718414;82;21227;-61
2021/05/23 01:27:56;;;;;;;4.92;2.10;;;;;;;16.76;59.43;100220.94;1718011;82;21077;-62
2021/05/23 01:30:29;;;;;;;3.58;1.42;;;;;;;16.73;59.77;100222.59;1714238;81;21071;-61
2021/05/23 01:32:59;;;;;;;4.20;1.75;;;;;;;16.69;60.04;100228.73;1711382;81;21117;-62
2021/05/23 01:35:32;;;;;;;4.35;1.80;;;;;;;16.64;60.46;100230.21;1697713;82;21103;-61
2021/05/23 01:38:00;;;;;;;4.47;1.72;;;;;;;16.62;60.64;100235.69;1716172;82;21882;-62
2021/05/23 01:40:31;;;;;;;5.97;1.67;;;;;;;16.62;60.40;100239.67;1662127;82;21591;-62
2021/05/23 01:42:57;;;;;;;4.17;1.70;;;;;;;16.59;60.43;100241.84;1715963;82;22835;-61
2021/05/23 01:45:24;;;;;;;5.50;2.08;;;;;;;16.54;60.89;100239.67;1690809;82;21128;-62
2021/05/23 01:47:50;;;;;;;4.65;1.70;;;;;;;16.49;61.06;100239.34;1702200;82;21078;-61
2021/05/23 01:50:17;;;;;;;3.87;1.70;;;;;;;16.43;61.38;100248.80;1718403;81;21117;-61
2021/05/23 01:52:51;;;;;;;5.62;2.40;;;;;;;16.38;61.52;100248.47;1713201;81;22473;-62
2021/05/23 01:55:18;;;;;;;4.95;2.15;;;;;;;16.34;61.79;100251.13;1713764;82;22533;-62
2021/05/23 01:57:46;;;;;;;5.65;2.20;;;;;;;16.30;61.91;100247.95;1716438;82;21108;-62
2021/05/23 02:00:14;;;;;;;6.03;2.22;;;;;;;16.27;62.15;100261.57;1722050;81;21679;-62
2021/05/23 02:02:40;;;;;;;6.65;2.10;;;;;;;16.26;62.33;100261.73;1723922;82;21037;-61
2021/05/23 02:05:07;;;;;;;5.12;2.05;;;;;;;16.29;62.23;100265.36;1732503;80;21681;-61
2021/05/23 02:07:36;;;;;;;5.15;2.10;;;;;;;16.31;62.27;100264.22;1730933;80;21115;-62
2021/05/23 02:10:07;;;;;;;7.78;2.15;;;;;;;16.31;62.52;100274.02;1727890;80;21076;-61
2021/05/23 02:12:34;;;;;;;6.10;2.52;;;;;;;16.24;62.68;100271.18;1723628;80;21069;-61
2021/05/23 02:15:03;;;;;;;5.58;2.47;;;;;;;16.20;62.77;100264.52;1730179;80;21100;-61
2021/05/23 02:17:29;;;;;;;5.90;2.70;;;;;;;16.13;62.91;100270.97;1728562;82;21072;-61
2021/05/23 02:19:56;;;;;;;4.92;2.30;;;;;;;16.04;63.19;100273.76;1713545;82;21112;-62
2021/05/23 02:22:22;;;;;;;5.15;2.30;;;;;;;15.95;63.51;100272.91;1729702;82;21068;-61
2021/05/23 02:24:49;;;;;;;7.58;2.90;;;;;;;15.88;63.82;100271.89;1709204;82;21116;-71
2021/05/23 02:27:15;;;;;;;4.35;2.17;;;;;;;15.85;64.08;100273.53;1729776;82;21179;-69
2021/05/23 02:29:42;;;;;;;6.67;2.27;;;;;;;15.92;64.29;100274.07;1732440;80;21575;-69
2021/05/23 02:32:08;;;;;;;5.90;2.20;;;;;;;16.02;64.17;100279.25;1728043;82;21139;-68
2021/05/23 02:34:47;;;;;;;4.58;2.12;;;;;;;16.10;64.07;100285.89;1725718;82;21065;-70
2021/05/23 02:37:14;;;;;;;4.65;1.90;;;;;;;16.13;64.16;100284.75;1734417;82;21053;-69
2021/05/23 02:39:41;;;;;;;5.70;2.80;;;;;;;16.11;64.27;100295.52;1730196;82;21153;-70
2021/05/23 02:42:07;;;;;;;5.00;2.60;;;;;;;16.12;64.38;100298.53;1726149;82;21120;-68
2021/05/23 02:44:34;;;;;;;5.33;2.50;;;;;;;16.13;64.36;100300.17;1733413;82;21155;-69
2021/05/23 02:47:02;;;;;;;4.72;2.00;;;;;;;16.11;64.30;100299.51;1729467;82;21719;-71
2021/05/23 02:49:29;;;;;;;4.33;2.20;;;;;;;16.09;64.39;100302.00;1722197;80;21084;-69
2021/05/23 02:51:55;;;;;;;5.92;2.33;;;;;;;16.04;64.45;100301.15;1708519;82;21575;-69
2021/05/23 02:54:21;;;;;;;5.33;2.33;;;;;;;15.98;64.62;100301.78;1733241;80;21136;-70
2021/05/23 02:56:48;;;;;;;5.28;2.45;;;;;;;16.00;64.55;100294.48;1728525;82;21057;-70
2021/05/23 02:59:15;;;;;;;4.97;1.75;;;;;;;16.10;64.36;100287.72;1730689;82;21613;-70
2021/05/23 03:01:41;;;;;;;4.72;2.45;;;;;;;16.21;64.12;100283.95;1729853;82;21116;-71
2021/05/23 03:04:08;;;;;;;4.47;2.45;;;;;;;16.28;63.94;100291.59;1711308;82;21076;-69
2021/05/23 03:06:34;;;;;;;5.12;2.62;;;;;;;16.31;63.88;100306.70;1732286;80;21646;-69
2021/05/23 03:09:01;;;;;;;4.37;2.17;;;;;;;16.28;63.75;100300.38;1727649;82;21136;-70
2021/05/23 03:11:27;;;;;;;5.45;2.58;;;;;;;16.26;63.94;100297.57;1727784;82;21567;-69
2021/05/23 03:13:54;;;;;;;6.00;2.90;;;;;;;16.28;64.28;100297.73;1726594;82;21097;-59
2021/05/23 03:16:20;;;;;;;5.42;2.75;;;;;;;16.30;64.32;100293.59;1709025;82;21156;-61
2021/05/23 03:18:48;;;;;;;5.47;2.15;;;;;;;16.29;64.39;100302.05;1729193;80;21152;-63
2021/05/23 03:21:14;;;;;;;4.47;1.98;;;;;;;16.28;64.56;100300.89;1725552;82;21119;-60
2021/05/23 03:23:42;;;;;;;5.47;2.37;;;;;;;16.31;64.62;100297.91;1693879;83;21760;-59
2021/05/23 03:26:08;;;;;;;6.45;2.55;;;;;;;16.39;64.61;100292.62;1670727;85;21139;-58
2021/05/23 03:28:35;;;;;;;4.45;2.20;;;;;;;16.49;64.39;100299.95;1700541;82;21100;-61
2021/05/23 03:31:01;;;;;;;6.08;2.50;;;;;;;16.55;64.31;100301.10;1731326;80;21116;-62
2021/05/23 03:33:28;;;;;;;5.53;3.00;;;;;;;16.56;64.39;100299.27;1702067;82;21694;-61
2021/05/23 03:35:54;;;;;;;4.40;2.20;;;;;;;16.53;64.47;100293.80;1728327;82;21752;-60
2021/05/23 03:38:21;;;;;;;5.85;2.52;;;;;;;16.54;64.56;100298.10;1706459;82;21096;-60
2021/05/23 03:40:47;;;;;;;4.90;2.70;;;;;;;16.55;64.53;100304.27;1726062;80;21630;-61
2021/05/23 03:43:14;;;;;;;4.80;2.33;;;;;;;16.56;64.33;100301.92;1730370;82;21085;-60
2021/05/23 03:45:41;;;;;;;5.58;2.35;;;;;;;16.57;64.27;100300.44;1709023;82;21135;-60
2021/05/23 03:48:08;;;;;;;5.50;2.83;;;;;;;16.58;64.14;100300.78;1728001;82;21088;-60
2021/05/23 03:50:35;;;;;;;4.53;2.27;;;;;;;16.53;63.96;100303.92;1725935;80;21081;-60
2021/05/23 03:53:01;;;;;;;5.05;2.40;;;;;;;16.52;64.02;100310.25;1732024;80;21103;-58
2021/05/23 03:55:28;;;;;;;5.20;2.27;;;;;;;16.55;63.95;100315.72;1723475;80;21605;-60
2021/05/23 03:57:54;;;;;;;5.20;2.10;;;;;;;16.55;64.06;100319.70;1729758;82;21099;-63
2021/05/23 04:00:21;;;;;;;5.20;2.40;;;;;;;16.53;64.22;100323.02;1735611;80;21131;-68
2021/05/23 04:02:52;;;;;;;4.67;2.47;;;;;;;16.52;64.59;100330.17;1724523;82;21567;-70
2021/05/23 04:05:17;;;;;;;7.05;2.90;;;;;;;16.51;64.73;100327.67;1708626;82;21093;-69
2021/05/23 04:07:44;;;;;;;5.95;2.87;;;;;;;16.53;64.79;100336.30;1718476;82;21622;-67
2021/05/23 04:10:14;;;;;;;5.50;2.75;;;;;;;16.48;64.94;100335.45;1713130;82;22536;-66
2021/05/23 04:12:45;;;;;;;5.45;2.77;;;;;;;16.50;64.88;100337.44;1717745;81;21080;-67
2021/05/23 04:15:12;;;;;;;6.00;2.27;;;;;;;16.59;64.70;100342.77;1717574;81;21085;-68
2021/05/23 04:17:39;;;;;;;6.70;2.80;;;;;;;16.61;64.82;100344.29;1718003;82;21105;-67
2021/05/23 04:20:08;;;;;;;6.37;2.70;;;;;;;16.64;64.83;100353.74;1716711;82;21081;-67
2021/05/23 04:22:35;;;;;;;5.25;2.83;;;;;;;16.65;64.73;100355.42;1718903;82;21119;-68
2021/05/23 04:25:05;;;;;;;7.12;4.50;;;;;;;16.65;64.76;100361.55;1719810;82;21154;-69
2021/05/23 04:27:32;;;;;;;6.15;2.47;;;;;;;16.65;64.90;100360.73;1715080;82;21129;-67
2021/05/23 04:30:00;;;;;;;5.75;2.77;;;;;;;16.68;64.53;100365.72;1710819;81;21102;-69
2021/05/23 04:32:27;;;;;;;5.58;3.25;;;;;;;16.67;64.54;100369.36;1716416;82;21073;-68
2021/05/23 04:34:54;;;;;;;4.35;2.20;;;;;;;16.72;64.62;100371.85;1716320;81;21169;-68
2021/05/23 04:37:20;;;;;;;4.45;2.05;;;;;;;16.83;64.25;100372.05;1725526;82;21106;-68
2021/05/23 04:39:46;;;;;;;6.95;2.67;;;;;;;16.96;64.19;100378.73;1690178;82;21694;-71
2021/05/23 04:42:13;;;;;;;5.97;2.95;;;;;;;17.08;63.64;100386.23;1708568;82;21069;-72
2021/05/23 04:44:40;;;;;;;7.08;2.58;;;;;;;17.14;63.33;100384.73;1717360;81;21085;-68
2021/05/23 04:47:07;;;;;;;4.28;1.85;;;;;;;17.19;63.10;100381.08;1717173;82;21737;-67
2021/05/23 04:49:38;;;;;;;4.65;1.77;;;;;;;17.22;62.63;100384.73;1693123;82;21136;-67
2021/05/23 04:52:01;;;;;;;4.30;1.80;;;;;;;17.18;61.76;100379.43;1718327;82;20921;-68
2021/05/23 04:56:51;;;;;;;4.90;1.77;;;;;;;17.09;61.97;100387.05;1790715;77;23600;-69
2021/05/23 04:59:18;;;;;;;4.03;1.98;;;;;;;16.94;61.44;100382.06;1758315;78;21141;-71
2021/05/23 05:01:44;;;;;;;6.17;2.00;;;;;;;16.86;61.82;100389.52;1767598;78;21705;-70
2021/05/23 05:04:10;;;;;;;3.12;1.32;;;;;;;16.82;62.28;100400.12;1768970;78;21323;-69
2021/05/23 05:06:37;;;;;;;5.55;1.90;;;;;;;16.77;61.62;100393.95;1765306;80;21112;-69
2021/05/23 05:09:05;;;;;;;4.35;1.92;;;;;;;16.70;61.82;100387.13;1771666;78;20958;-68
2021/05/23 05:11:32;;;;;;;3.85;1.57;;;;;;;16.72;61.92;100393.61;1769664;78;21006;-71
2021/05/23 05:13:58;;;;;;;4.25;1.50;;;;;;;16.78;60.79;100388.13;1772777;78;21709;-68
2021/05/23 05:16:24;;;;;;;4.47;1.80;;;;;;;16.78;61.05;100388.13;1764210;80;21029;-68
2021/05/23 05:18:53;;;;;;;6.08;1.55;;;;;;;16.76;61.45;100398.95;1763441;80;21073;-70
2021/05/23 05:21:20;;;;;;;3.83;1.62;;;;;;;16.77;61.69;100387.81;1734686;80;21032;-69
2021/05/23 05:23:48;;;;;;;4.05;1.52;;;;;;;16.80;60.96;100385.66;1775257;80;21631;-68
2021/05/23 05:26:14;;;;;;;3.33;1.35;;;;;;;16.83;61.01;100386.67;1770360;80;21028;-67
2021/05/23 05:28:41;;;;;;;5.40;1.95;;;;;;;16.85;61.04;100392.67;1763755;78;21458;-65
2021/05/23 05:31:09;;;;;;;5.70;1.92;;;;;;;16.87;60.99;100395.99;1739619;80;23001;-68
2021/05/23 05:33:36;;;;;;;3.80;1.60;;;;;;;16.86;60.74;100391.70;1762440;80;21081;-67
2021/05/23 05:36:03;;;;;;;4.70;1.70;;;;;;;16.90;60.84;100394.85;1770076;80;21084;-65
2021/05/23 05:38:30;;;;;;;3.85;1.57;;;;;;;17.01;60.09;100397.67;1775285;78;21861;-66
2021/05/23 05:40:56;;;;;;;4.72;1.40;;;;;;;17.15;58.57;100409.00;1743457;78;20985;-69
2021/05/23 05:43:24;;;;;;;3.60;1.35;;;;;;;17.18;57.32;100404.69;1768840;78;20938;-68
2021/05/23 05:45:51;;;;;;;2.67;1.00;;;;;;;17.17;58.40;100403.02;1769072;78;21017;-67
2021/05/23 05:48:17;;;;;;;2.92;1.10;;;;;;;17.18;56.97;100406.02;1744520;80;21887;-71
2021/05/23 05:50:47;;;;;;;5.50;1.35;;;;;;;17.16;56.03;100401.84;1742683;80;21059;-67
2021/05/23 05:53:14;;;;;;;2.25;0.70;;;;;;;17.16;55.88;100402.67;1742206;81;21578;-68
2021/05/23 05:55:40;;;;;;;3.65;1.12;;;;;;;17.19;55.44;100411.65;1762883;79;21016;-67
2021/05/23 05:58:07;;;;;;;3.50;1.32;;;;;;;17.18;55.40;100408.67;1738029;80;22554;-68
2021/05/23 06:00:33;;;;;;;3.22;0.88;;;;;;;17.20;56.13;100413.33;1740732;80;20902;-70
2021/05/23 06:03:01;;;;;;;2.50;0.90;;;;;;;17.21;54.75;100416.30;1739980;80;21123;-68
2021/05/23 06:05:29;;;;;;;2.92;1.00;;;;;;;17.23;55.96;100420.13;1744920;80;21372;-68
2021/05/23 06:07:55;;;;;;;4.40;1.10;;;;;;;17.30;55.56;100418.48;1732003;80;21533;-69
2021/05/23 06:10:23;;;;;;;3.35;1.20;;;;;;;17.35;56.01;100422.81;1724322;80;21115;-72
2021/05/23 06:12:49;;;;;;;2.80;0.80;;;;;;;17.43;55.84;100421.95;1728543;81;22562;-69
2021/05/23 06:15:18;;;;;;;3.40;1.00;;;;;;;17.54;53.99;100430.12;1741488;80;21763;-71
2021/05/23 06:17:44;;;;;;;3.92;1.30;;;;;;;17.62;54.13;100433.60;1738135;80;21068;-69
2021/05/23 06:20:11;;;;;;;4.50;1.47;;;;;;;17.66;53.40;100444.73;1716680;80;20941;-68
2021/05/23 06:22:38;;;;;;;4.90;1.60;;;;;;;17.69;53.85;100438.27;1745888;80;20974;-69
2021/05/23 06:25:06;;;;;;;3.90;1.80;;;;;;;17.68;52.92;100449.38;1747208;81;21135;-71
2021/05/23 06:27:32;;;;;;;4.28;1.87;;;;;;;17.69;53.48;100435.59;1726026;81;21068;-70
2021/05/23 06:29:59;;;;;;;2.83;1.30;;;;;;;17.69;53.64;100436.93;1699369;82;21670;-70
2021/05/23 06:32:25;;;;;;;3.90;1.30;;;;;;;17.70;53.52;100426.59;1680962;83;21111;-69
2021/05/23 06:34:51;;;;;;;4.03;1.37;;;;;;;17.75;53.35;100425.11;1668215;84;20941;-72
2021/05/23 06:37:19;;;;;;;3.62;1.27;;;;;;;17.83;52.51;100433.56;1704595;82;21052;-68
2021/05/23 06:39:45;;;;;;;3.90;1.55;;;;;;;17.93;53.10;100426.25;1688659;83;21174;-68
2021/05/23 06:42:13;;;;;;;3.75;1.27;;;;;;;18.04;53.62;100423.75;1701834;82;21808;-68
2021/05/23 06:44:40;;;;;;;4.55;1.70;;;;;;;18.19;53.29;100431.87;1682921;83;21183;-69
2021/05/23 06:47:07;;;;;;;4.90;1.55;;;;;;;18.29;53.80;100432.49;1681292;83;21172;-69
2021/05/23 06:49:36;;;;;;;4.53;1.50;;;;;;;18.36;52.51;100440.11;1686164;83;21426;-68
2021/05/23 06:52:03;;;;;;;3.65;1.72;;;;;;;18.34;52.13;100430.63;1683212;83;21196;-71
2021/05/23 06:54:29;;;;;;;3.12;1.20;;;;;;;18.26;52.51;100442.16;1680086;83;21008;-69
2021/05/23 06:56:56;;;;;;;3.40;1.40;;;;;;;18.21;52.79;100440.51;1667383;84;21890;-68
2021/05/23 06:59:23;;;;;;;4.10;1.12;;;;;;;18.23;51.01;100453.14;1682080;83;21178;-70
2021/05/23 07:01:50;;;;;;;3.42;1.10;;;;;;;18.22;49.47;100443.48;1674464;84;21124;-66
2021/05/23 07:04:18;;;;;;;4.03;1.32;;;;;;;18.20;49.90;100440.16;1662257;84;21759;-67
2021/05/23 07:06:46;;;;;;;3.60;1.50;;;;;;;18.27;50.09;100445.64;1681777;84;21132;-67
2021/05/23 07:09:12;;;;;;;3.55;1.20;;;;;;;18.40;48.46;100437.94;1683525;83;21122;-67
2021/05/23 07:11:40;;;;;;;2.83;1.20;;;;;;;18.51;47.95;100440.73;1676529;83;21677;-67
2021/05/23 07:14:07;;;;;;;2.90;1.00;;;;;;;18.55;48.19;100447.37;1661157;84;21145;-67
2021/05/23 07:16:35;;;;;;;6.55;1.72;;;;;;;18.49;48.84;100442.72;1680331;83;21109;-67
2021/05/23 07:19:03;;;;;;;3.00;1.25;;;;;;;18.43;49.03;100450.09;1688228;82;21159;-67
2021/05/23 07:21:29;;;;;;;4.28;1.40;;;;;;;18.33;49.82;100452.95;1693687;82;21571;-67
2021/05/23 07:23:56;;;;;;;3.52;1.50;;;;;;;18.27;49.98;100447.79;1689427;84;21172;-66
2021/05/23 07:26:22;;;;;;;4.50;1.77;;;;;;;18.25;49.88;100452.47;1689592;84;21072;-70
2021/05/23 07:28:49;;;;;;;3.52;1.20;;;;;;;18.27;49.36;100445.64;1678672;84;22197;-67
2021/05/23 07:31:15;;;;;;;4.47;1.10;;;;;;;18.32;47.01;100453.94;1674754;82;21160;-69
2021/05/23 07:33:42;;;;;;;4.03;1.20;;;;;;;18.30;45.52;100457.28;1685230;82;21408;-70
2021/05/23 07:36:10;;;;;;;2.87;1.07;;;;;;;18.29;46.60;100456.47;1685202;82;21104;-69
2021/05/23 07:38:37;;;;;;;3.75;1.22;;;;;;;18.35;47.76;100446.95;1688478;82;21116;-70
2021/05/23 07:41:04;;;;;;;3.65;1.30;;;;;;;18.44;46.83;100443.27;1688571;84;22042;-68
2021/05/23 07:43:30;;;;;;;2.98;1.15;;;;;;;18.55;46.15;100444.19;1676242;84;21196;-69
2021/05/23 07:45:58;;;;;;;3.65;1.17;;;;;;;18.68;46.08;100455.63;1679257;84;21117;-71
2021/05/23 07:48:26;;;;;;;3.75;1.17;;;;;;;18.78;46.42;100457.23;1679908;84;21133;-68
2021/05/23 07:50:52;;;;;;;2.95;1.45;;;;;;;18.85;47.20;100453.74;1682077;84;21159;-70
2021/05/23 07:53:19;;;;;;;3.47;1.40;;;;;;;18.94;47.17;100434.52;1665724;83;21643;-70
2021/05/23 07:55:46;;;;;;;3.85;1.55;;;;;;;19.05;46.98;100438.64;1677871;84;21681;-72
2021/05/23 07:58:13;;;;;;;2.80;1.10;;;;;;;19.14;45.85;100443.41;1678685;84;21084;-69
2021/05/23 08:00:39;;;;;;;3.20;1.00;;;;;;;19.18;44.92;100439.36;1681140;82;21127;-69
2021/05/23 08:03:06;;;;;;;4.65;1.30;;;;;;;19.18;44.50;100443.36;1687539;83;21016;-69
2021/05/23 08:05:33;;;;;;;3.37;1.07;;;;;;;19.18;44.63;100446.88;1672356;84;22336;-70
2021/05/23 08:07:59;;;;;;;3.65;1.30;;;;;;;19.24;44.95;100440.81;1693063;84;21115;-70
2021/05/23 08:10:25;;;;;;;2.80;0.93;;;;;;;19.39;44.51;100440.05;1687094;84;21167;-71
2021/05/23 08:12:52;;;;;;;2.75;0.90;;;;;;;19.53;43.43;100445.92;1687276;84;21082;-68
2021/05/23 08:15:19;;;;;;;3.15;1.22;;;;;;;19.58;42.58;100456.88;1693309;84;21108;-69
2021/05/23 08:17:46;;;;;;;4.53;1.00;;;;;;;19.57;42.36;100447.72;1671708;84;21122;-70
2021/05/23 08:20:15;;;;;;;3.83;1.10;;;;;;;19.56;42.28;100457.58;1691281;84;21969;-68
2021/05/23 08:22:41;;;;;;;3.20;1.12;;;;;;;19.61;43.53;100453.86;1687891;84;21641;-69
2021/05/23 08:25:09;;;;;;;3.10;0.85;;;;;;;19.73;42.68;100450.25;1689780;82;22327;-69
2021/05/23 08:27:35;;;;;;;3.17;1.37;;;;;;;19.86;42.08;100458.50;1685743;84;21154;-68
2021/05/23 08:30:03;;;;;;;4.28;1.32;;;;;;;20.00;42.29;100453.36;1690978;84;21621;-69
2021/05/23 08:32:29;;;;;;;2.77;1.15;;;;;;;20.12;42.35;100457.23;1693527;82;22410;-71
2021/05/23 08:34:56;;;;;;;3.02;1.00;;;;;;;20.23;41.70;100453.28;1689293;82;21132;-69
2021/05/23 08:37:23;;;;;;;12.70;1.40;;;;;;;20.30;41.36;100460.05;1693821;84;20984;-71
2021/05/23 08:39:49;;;;;;;3.45;1.10;;;;;;;20.37;39.66;100456.95;1686464;84;21115;-67
2021/05/23 08:42:17;;;;;;;2.92;1.10;;;;;;;20.39;40.69;100464.28;1692209;84;21064;-68
2021/05/23 08:44:45;;;;;;;4.22;1.27;;;;;;;20.41;39.99;100463.09;1689987;84;20984;-71
2021/05/23 08:47:11;;;;;;;3.02;0.90;;;;;;;20.40;40.25;100464.09;1671188;84;21780;-69
2021/05/23 08:49:38;;;;;;;1.92;0.72;;;;;;;20.39;40.70;100470.47;1690516;83;21174;-67
2021/05/23 08:52:06;;;;;;;2.45;0.90;;;;;;;20.39;40.55;100475.81;1672919;84;20981;-69
2021/05/23 08:54:40;;;;;;;3.08;1.32;;;;;;;20.42;40.39;100466.58;1652187;84;21179;-73
2021/05/23 08:57:02;;;;;;;3.08;1.20;;;;;;;20.46;40.13;100469.70;1705782;82;21112;-77
2021/05/23 08:59:29;;;;;;;3.15;1.00;;;;;;;20.54;39.90;100475.81;1702636;82;21084;-71
2021/05/23 09:02:06;;;;;;;5.12;1.02;;;;;;;20.56;38.76;100468.42;1705054;82;21629;-74
2021/05/23 09:04:33;;;;;;;3.52;1.17;;;;;;;20.51;37.97;100466.82;1706494;82;21116;-74
2021/05/23 09:07:03;;;;;;;4.25;1.20;;;;;;;20.50;38.91;100465.16;1708595;82;22569;-72
2021/05/23 09:09:46;;;;;;;2.67;0.80;;;;;;;20.53;38.79;100467.97;1704853;82;22316;-71
2021/05/23 09:12:16;;;;;;;2.83;0.80;;;;;;;20.56;37.25;100453.73;1700113;83;21539;-77
2021/05/23 09:14:52;;;;;;;2.95;1.07;;;;;;;20.60;36.07;100456.33;1706445;82;21175;-70
2021/05/23 09:17:27;;;;;;;3.17;0.78;;;;;;;20.65;36.67;100444.30;1704161;82;21362;-68
2021/05/23 09:19:55;;;;;;;3.90;0.90;;;;;;;20.71;37.80;100459.56;1715705;81;21195;-67
2021/05/23 09:22:25;;;;;;;2.70;0.68;;;;;;;20.76;37.07;100449.98;1706116;81;22094;-72
2021/05/23 09:24:58;;;;;;;2.08;0.80;;;;;;;20.80;37.07;100446.94;1714152;82;21108;-74
2021/05/23 09:27:28;;;;;;;2.52;0.78;;;;;;;20.87;37.64;100446.50;1716455;81;21085;-78
2021/05/23 09:30:20;;;;;;;4.85;1.30;;;;;;;21.05;37.23;100452.77;1706187;83;21128;-73
2021/05/23 09:32:44;;;;;;;2.17;0.80;;;;;;;21.13;37.01;100445.45;1681860;83;21570;-74
2021/05/23 09:35:11;;;;;;;2.65;1.02;;;;;;;21.21;37.09;100444.98;1726856;81;21093;-72
2021/05/23 09:37:38;;;;;;;3.10;0.80;;;;;;;21.28;37.90;100448.06;1705831;81;21622;-73
2021/05/23 09:40:20;;;;;;;2.08;0.60;;;;;;;21.40;36.80;100448.86;1722484;81;21451;-71
2021/05/23 09:42:49;;;;;;;2.00;0.70;;;;;;;21.44;33.87;100454.98;1685663;83;21436;-74
2021/05/23 09:45:15;;;;;;;2.72;1.05;;;;;;;21.44;35.08;100446.95;1705414;82;22748;-69
2021/05/23 09:47:57;;;;;;;3.02;1.02;;;;;;;21.44;36.15;100446.13;1706081;83;21021;-72
2021/05/23 09:50:44;;;;;;;2.17;0.80;;;;;;;21.44;35.60;100447.47;1697609;81;21048;-73
2021/05/23 09:53:27;;;;;;;2.50;0.68;;;;;;;21.39;35.47;100435.18;1705200;81;21146;-70
2021/05/23 09:56:04;;;;;;;2.27;0.60;;;;;;;21.38;34.68;100436.19;1706187;81;21137;-70
2021/05/23 09:58:34;;;;;;;2.87;0.75;;;;;;;21.41;33.96;100451.87;1716151;81;22067;-73
2021/05/23 10:01:00;;;;;;;2.05;0.62;;;;;;;21.38;33.75;100434.33;1717701;81;21402;-73
2021/05/23 10:03:34;;;;;;;2.33;0.60;;;;;;;21.37;34.03;100455.93;1723292;81;20970;-73
2021/05/23 10:06:00;;;;;;;3.55;0.70;;;;;;;21.31;33.76;100438.80;1665922;84;21092;-71
2021/05/23 10:08:28;;;;;;;2.62;0.90;;;;;;;21.28;34.23;100445.38;1670570;84;21081;-75
2021/05/23 10:10:54;;;;;;;2.00;0.60;;;;;;;21.29;33.62;100440.84;1685648;84;21081;-68
2021/05/23 10:13:22;;;;;;;1.85;0.55;;;;;;;21.32;34.25;100445.83;1687348;84;21622;-69
2021/05/23 10:15:50;;;;;;;2.65;0.68;;;;;;;21.34;33.36;100445.94;1669327;84;21128;-68
2021/05/23 10:18:17;;;;;;;1.85;0.60;;;;;;;21.38;33.56;100449.57;1680578;84;21108;-68
2021/05/23 10:20:45;;;;;;;3.33;1.25;;;;;;;21.40;34.35;100443.02;1685122;84;21108;-74
2021/05/23 10:23:17;;;;;;;2.50;0.70;;;;;;;21.47;34.45;100447.95;1690206;84;21509;-70
2021/05/23 10:25:50;;;;;;;3.30;0.80;;;;;;;21.53;33.63;100453.02;1721016;82;21180;-68
2021/05/23 10:28:17;;;;;;;2.80;1.05;;;;;;;21.57;33.27;100453.46;1704194;82;21076;-67
2021/05/23 10:30:51;;;;;;;2.60;0.82;;;;;;;21.61;32.25;100454.23;1721782;81;21613;-68
2021/05/23 10:33:19;;;;;;;2.52;0.80;;;;;;;21.62;33.53;100455.05;1727185;81;21072;-68
2021/05/23 10:35:49;;;;;;;2.72;0.90;;;;;;;21.70;33.66;100457.09;1716993;82;21068;-75
2021/05/23 10:38:20;;;;;;;3.60;1.00;;;;;;;21.83;33.71;100459.55;1701357;83;21688;-68
2021/05/23 10:41:01;;;;;;;2.65;0.75;;;;;;;21.90;32.97;100449.70;1717408;82;21602;-68
2021/05/23 10:43:30;;;;;;;3.70;0.95;;;;;;;21.92;33.37;100444.15;1721578;82;21113;-73
2021/05/23 10:46:13;;;;;;;3.85;1.05;;;;;;;21.97;32.47;100451.09;1718337;82;21081;-68
2021/05/23 10:48:55;;;;;;;3.45;0.82;;;;;;;21.92;32.90;100446.31;1668903;84;21670;-69
2021/05/23 10:51:24;;;;;;;3.12;1.12;;;;;;;21.88;33.53;100449.08;1679113;84;21093;-69
2021/05/23 10:53:51;;;;;;;4.87;0.88;;;;;;;21.87;33.09;100455.44;1724157;82;21069;-75
2021/05/23 10:56:31;;;;;;;4.33;1.05;;;;;;;21.87;33.14;100450.09;1721977;81;21393;-68
2021/05/23 10:59:04;;;;;;;2.95;0.90;;;;;;;21.88;32.72;100451.23;1713128;82;21073;-70
2021/05/23 11:01:45;;;;;;;2.35;0.70;;;;;;;21.95;33.22;100456.64;1721155;82;21681;-71
2021/05/23 11:04:19;;;;;;;2.67;0.90;;;;;;;22.07;31.52;100440.84;1698620;83;21073;-67
2021/05/23 11:06:47;;;;;;;2.37;0.88;;;;;;;22.23;32.06;100435.69;1700886;83;21085;-71
2021/05/23 11:09:21;;;;;;;2.80;0.88;;;;;;;22.37;31.14;100432.06;1705538;83;21582;-69
2021/05/23 11:11:48;;;;;;;2.33;0.60;;;;;;;22.39;30.58;100446.12;1705789;83;21080;-69
2021/05/23 11:14:23;;;;;;;2.42;0.90;;;;;;;22.39;30.67;100446.12;1719089;82;21790;-73
2021/05/23 11:16:53;;;;;;;3.90;1.12;;;;;;;22.38;31.15;100439.61;1707994;83;21108;-68
2021/05/23 11:19:22;;;;;;;3.00;1.00;;;;;;;22.44;31.58;100431.60;1695962;83;21667;-70
2021/05/23 11:21:53;;;;;;;3.80;1.10;;;;;;;22.55;31.90;100424.00;1710044;83;21587;-68
2021/05/23 11:24:30;;;;;;;8.65;1.12;;;;;;;22.68;31.83;100428.57;1704057;83;21140;-71
2021/05/23 11:26:57;;;;;;;2.35;0.85;;;;;;;22.81;32.12;100430.80;1706334;83;21124;-68
2021/05/23 11:29:27;;;;;;;2.83;0.90;;;;;;;22.89;31.27;100433.80;1689145;83;21049;-67
2021/05/23 11:31:53;;;;;;;2.75;0.88;;;;;;;22.90;31.43;100441.34;1707990;81;21148;-72